createdAt,value
2018-11-20T00:01:53.510Z,94571.88
2018-11-20T00:04:43.013Z,94573.57
2018-11-20T00:07:48.981Z,94578.54
2018-11-20T00:10:37.003Z,94561.20
2018-11-20T00:13:25.155Z,94565.24
2018-11-20T00:16:06.025Z,94574.03
2018-11-20T00:18:44.212Z,94564.67
2018-11-20T00:21:25.540Z,94556.98
2018-11-20T00:24:16.570Z,94558.49
2018-11-20T00:27:13.425Z,94563.00
2018-11-20T00:29:56.709Z,94540.36
2018-11-20T00:32:44.380Z,94544.03
2018-11-20T00:35:32.506Z,94537.42
2018-11-20T00:38:19.777Z,94532.53
2018-11-20T00:41:17.916Z,94535.00
2018-11-20T00:43:54.531Z,94525.11
2018-11-20T00:46:51.315Z,94532.02
2018-11-20T00:49:44.216Z,94517.00
2018-11-20T00:52:30.815Z,94520.13
2018-11-20T00:55:10.571Z,94524.38
2018-11-20T00:58:05.473Z,94513.59
2018-11-20T01:00:50.999Z,94510.09
2018-11-20T01:03:40.200Z,94507.19
2018-11-20T01:06:21.135Z,94503.47
2018-11-20T01:09:14.948Z,94505.63
2018-11-20T01:11:56.815Z,94496.92
2018-11-20T01:14:32.421Z,94492.06
2018-11-20T01:17:20.398Z,94495.41
2018-11-20T01:20:11.132Z,94494.14
2018-11-20T01:23:02.112Z,94511.27
2018-11-20T01:25:47.910Z,94502.23
2018-11-20T01:28:34.512Z,94499.85
2018-11-20T01:31:20.964Z,94506.16
2018-11-20T01:34:02.080Z,94495.08
2018-11-20T01:36:49.976Z,94509.84
2018-11-20T01:39:33.957Z,94510.23
2018-11-20T01:42:32.403Z,94495.45
2018-11-20T01:45:12.285Z,94498.63
2018-11-20T01:48:09.092Z,94508.02
2018-11-20T01:51:02.750Z,94489.04
2018-11-20T01:53:55.791Z,94486.50
2018-11-20T01:56:43.785Z,94474.06
2018-11-20T01:59:33.918Z,94466.64
2018-11-20T02:02:18.958Z,94474.39
2018-11-20T02:05:07.864Z,94470.55
2018-11-20T02:08:02.866Z,94473.47
2018-11-20T02:10:43.076Z,94454.05
2018-11-20T02:13:57.646Z,94456.52
2018-11-20T02:16:45.558Z,94451.49
2018-11-20T02:19:30.532Z,94436.15
2018-11-20T02:22:14.996Z,94447.30
2018-11-20T02:25:06.033Z,94452.56
2018-11-20T02:28:05.950Z,94439.84
2018-11-20T02:31:00.427Z,94437.85
2018-11-20T02:33:38.369Z,94430.95
2018-11-20T02:36:16.792Z,94421.45
2018-11-20T02:39:20.001Z,94423.52
2018-11-20T02:42:06.607Z,94425.03
2018-11-20T02:44:53.991Z,94418.03
2018-11-20T02:47:56.864Z,94419.81
2018-11-20T02:50:36.995Z,94419.73
2018-11-20T02:53:23.744Z,94415.98
2018-11-20T02:56:15.447Z,94416.20
2018-11-20T02:59:01.905Z,94436.83
2018-11-20T03:01:44.098Z,94423.91
2018-11-20T03:04:32.100Z,94415.39
2018-11-20T03:07:12.850Z,94419.95
2018-11-20T03:09:59.504Z,94412.02
2018-11-20T03:12:53.172Z,94414.47
2018-11-20T03:15:32.872Z,94416.34
2018-11-20T03:18:19.636Z,94421.92
2018-11-20T03:21:05.908Z,94421.64
2018-11-20T03:23:51.222Z,94410.73
2018-11-20T03:26:33.544Z,94408.09
2018-11-20T03:29:39.396Z,94401.92
2018-11-20T03:32:39.128Z,94404.23
2018-11-20T03:35:27.824Z,94408.02
2018-11-20T03:38:06.428Z,94401.24
2018-11-20T03:40:55.172Z,94404.51
2018-11-20T03:43:41.453Z,94393.67
2018-11-20T03:46:29.512Z,94403.93
2018-11-20T03:49:26.502Z,94403.59
2018-11-20T03:52:27.321Z,94403.45
2018-11-20T03:55:10.001Z,94389.72
2018-11-20T03:57:51.865Z,94379.14
2018-11-20T04:00:38.747Z,94364.03
2018-11-20T04:03:25.329Z,94368.52
2018-11-20T04:06:22.365Z,94342.97
2018-11-20T04:09:10.432Z,94341.00
2018-11-20T04:11:54.918Z,94343.22
2018-11-20T04:14:41.569Z,94351.13
2018-11-20T04:17:24.445Z,94342.35
2018-11-20T04:20:11.433Z,94338.70
2018-11-20T04:23:01.785Z,94325.54
2018-11-20T04:25:49.830Z,94338.69
2018-11-20T04:28:52.843Z,94328.58
2018-11-20T04:32:15.607Z,94336.89
2018-11-20T04:35:23.975Z,94337.80
2018-11-20T04:38:10.862Z,94322.48
2018-11-20T04:41:06.421Z,94339.14
2018-11-20T04:43:51.237Z,94338.43
2018-11-20T04:46:50.913Z,94337.27
2018-11-20T04:49:35.674Z,94326.16
2018-11-20T04:52:22.103Z,94324.84
2018-11-20T04:55:04.638Z,94322.05
2018-11-20T04:57:57.623Z,94322.28
2018-11-20T05:00:44.112Z,94312.61
2018-11-20T05:03:30.480Z,94316.61
2018-11-20T05:06:16.924Z,94312.81
2018-11-20T05:09:19.845Z,94319.30
2018-11-20T05:12:06.584Z,94313.43
2018-11-20T05:14:53.337Z,94313.50
2018-11-20T05:17:40.393Z,94331.07
2018-11-20T05:20:34.279Z,94326.74
2018-11-20T05:23:20.923Z,94321.38
2018-11-20T05:26:08.929Z,94313.70
2018-11-20T05:28:52.812Z,94317.45
2018-11-20T05:31:39.423Z,94313.87
2018-11-20T05:34:19.031Z,94312.53
2018-11-20T05:36:57.874Z,94317.63
2018-11-20T05:39:44.150Z,94315.08
2018-11-20T05:42:32.190Z,94310.84
2018-11-20T05:45:19.136Z,94308.95
2018-11-20T05:48:13.153Z,94316.61
2018-11-20T05:50:59.505Z,94315.94
2018-11-20T05:56:36.496Z,94312.70
2018-11-20T05:59:36.143Z,94314.80
2018-11-20T06:02:23.553Z,94307.97
2018-11-20T06:05:10.671Z,94301.53
2018-11-20T06:10:45.017Z,94309.32
2018-11-20T06:17:08.093Z,94312.84
2018-11-20T06:19:55.267Z,94316.54
2018-11-20T06:22:42.596Z,94315.16
2018-11-20T06:28:01.812Z,94308.59
2018-11-20T06:30:55.019Z,94311.99
2018-11-20T06:33:40.960Z,94316.67
2018-11-20T06:36:31.004Z,94318.09
2018-11-20T06:39:18.298Z,94319.91
2018-11-20T06:42:04.279Z,94328.81
2018-11-20T06:44:44.822Z,94336.06
2018-11-20T06:47:26.898Z,94331.45
2018-11-20T06:50:12.656Z,94341.62
2018-11-20T06:53:02.600Z,94337.30
2018-11-20T06:55:57.171Z,94336.38
2018-11-20T06:58:42.228Z,94326.91
2018-11-20T07:01:18.727Z,94330.13
2018-11-20T07:03:57.781Z,94326.77
2018-11-20T07:06:54.284Z,94330.98
2018-11-20T07:09:44.307Z,94322.09
2018-11-20T07:12:37.577Z,94315.56
2018-11-20T07:15:23.851Z,94307.32
2018-11-20T07:17:58.547Z,94303.33
2018-11-20T07:20:39.730Z,94316.25
2018-11-20T07:23:28.869Z,94309.63
2018-11-20T07:26:21.300Z,94313.35
2018-11-20T07:28:58.019Z,94307.87
2018-11-20T07:31:57.284Z,94305.89
2018-11-20T07:34:43.203Z,94316.47
2018-11-20T07:37:25.891Z,94304.17
2018-11-20T07:40:18.726Z,94298.63
2018-11-20T07:43:04.693Z,94314.39
2018-11-20T07:45:54.645Z,94289.26
2018-11-20T07:49:00.302Z,94287.55
2018-11-20T07:52:02.713Z,94293.52
2018-11-20T07:54:48.611Z,94284.58
2018-11-20T07:57:44.847Z,94284.43
2018-11-20T08:00:24.260Z,94279.19
2018-11-20T08:03:10.138Z,94277.14
2018-11-20T08:05:57.337Z,94298.33
2018-11-20T08:08:36.019Z,94291.84
2018-11-20T08:11:29.410Z,94295.27
2018-11-20T08:14:12.209Z,94289.09
2018-11-20T08:16:54.349Z,94291.77
2018-11-20T08:19:50.523Z,94306.27
2018-11-20T08:22:43.651Z,94291.27
2018-11-20T08:25:39.956Z,94295.23
2018-11-20T08:28:22.725Z,94300.28
2018-11-20T08:31:15.720Z,94291.54
2018-11-20T08:34:01.212Z,94291.17
2018-11-20T08:36:57.209Z,94296.73
2018-11-20T08:39:38.917Z,94295.88
2018-11-20T08:42:24.887Z,94299.91
2018-11-20T08:45:11.900Z,94310.64
2018-11-20T08:48:05.315Z,94296.42
2018-11-20T08:50:43.950Z,94300.17
2018-11-20T08:53:35.865Z,94296.61
2018-11-20T08:56:26.827Z,94287.43
2018-11-20T08:59:20.039Z,94304.22
2018-11-20T09:02:07.465Z,94282.01
2018-11-20T09:04:53.059Z,94276.70
2018-11-20T09:07:38.919Z,94286.46
2018-11-20T09:10:25.081Z,94299.11
2018-11-20T09:13:15.371Z,94285.01
2018-11-20T09:16:17.743Z,94282.09
2018-11-20T09:19:15.278Z,94270.45
2018-11-20T09:22:01.104Z,94266.85
2018-11-20T09:24:54.726Z,94269.89
2018-11-20T09:27:36.700Z,94258.01
2018-11-20T09:30:22.850Z,94270.75
2018-11-20T09:33:09.882Z,94267.82
2018-11-20T09:36:12.105Z,94266.14
2018-11-20T09:38:51.731Z,94274.63
2018-11-20T09:41:43.229Z,94276.14
2018-11-20T09:44:45.172Z,94277.79
2018-11-20T09:47:30.623Z,94264.42
2018-11-20T09:50:36.334Z,94254.19
2018-11-20T09:53:30.357Z,94248.25
2018-11-20T09:56:21.165Z,94239.09
2018-11-20T09:59:27.238Z,94238.86
2018-11-20T10:02:26.332Z,94234.48
2018-11-20T10:05:13.555Z,94224.98
2018-11-20T10:07:51.665Z,94224.88
2018-11-20T10:10:38.865Z,94226.73
2018-11-20T10:13:13.928Z,94226.50
2018-11-20T10:15:59.662Z,94229.45
2018-11-20T10:18:41.663Z,94231.70
2018-11-20T10:21:27.393Z,94220.56
2018-11-20T10:24:17.719Z,94226.19
2018-11-20T10:27:01.747Z,94222.06
2018-11-20T10:29:48.331Z,94220.48
2018-11-20T10:32:31.352Z,94213.50
2018-11-20T10:35:18.776Z,94207.70
2018-11-20T10:37:59.543Z,94203.41
2018-11-20T10:40:59.034Z,94206.50
2018-11-20T10:43:53.163Z,94194.64
2018-11-20T10:46:40.915Z,94188.13
2018-11-20T10:49:24.045Z,94192.13
2018-11-20T10:52:02.546Z,94194.06
2018-11-20T10:54:44.299Z,94183.13
2018-11-20T10:57:27.745Z,94183.94
2018-11-20T11:00:14.973Z,94170.19
2018-11-20T11:03:00.707Z,94169.14
2018-11-20T11:05:48.141Z,94178.94
2018-11-20T11:08:33.884Z,94166.38
2018-11-20T11:11:39.537Z,94167.36
2018-11-20T11:14:37.519Z,94165.59
2018-11-20T11:17:24.760Z,94152.80
2018-11-20T11:20:10.749Z,94153.47
2018-11-20T11:22:54.549Z,94150.05
2018-11-20T11:25:40.463Z,94156.79
2018-11-20T11:28:26.491Z,94142.39
2018-11-20T11:31:19.749Z,94150.45
2018-11-20T11:34:02.856Z,94143.72
2018-11-20T11:36:43.394Z,94136.84
2018-11-20T11:39:39.490Z,94146.56
2018-11-20T11:42:25.513Z,94140.45
2018-11-20T11:45:05.490Z,94144.58
2018-11-20T11:47:47.900Z,94149.27
2018-11-20T11:50:30.030Z,94141.53
2018-11-20T11:53:16.380Z,94135.11
2018-11-20T11:56:06.221Z,94138.70
2018-11-20T11:58:43.083Z,94152.39
2018-11-20T12:04:17.176Z,94155.46
2018-11-20T12:07:03.144Z,94158.24
2018-11-20T12:09:53.369Z,94161.92
2018-11-20T12:12:48.877Z,94156.97
2018-11-20T12:15:31.915Z,94155.12
2018-11-20T12:18:17.527Z,94154.00
2018-11-20T12:21:10.679Z,94146.99
2018-11-20T12:23:48.341Z,94150.37
2018-11-20T12:29:04.787Z,94154.53
2018-11-20T12:31:51.978Z,94155.25
2018-11-20T12:34:39.229Z,94148.45
2018-11-20T12:37:26.416Z,94144.88
2018-11-20T12:40:14.588Z,94143.92
2018-11-20T12:43:00.941Z,94142.56
2018-11-20T12:46:12.948Z,94139.29
2018-11-20T12:48:49.855Z,94137.53
2018-11-20T12:51:37.173Z,94142.05
2018-11-20T12:54:24.538Z,94145.63
2018-11-20T12:57:11.821Z,94143.81
2018-11-20T12:59:58.987Z,94149.73
2018-11-20T13:02:46.284Z,94149.54
2018-11-20T13:05:22.892Z,94140.67
2018-11-20T13:08:10.197Z,94154.25
2018-11-20T13:10:57.438Z,94152.45
2018-11-20T13:13:44.767Z,94154.06
2018-11-20T13:16:31.952Z,94152.27
2018-11-20T13:19:19.482Z,94155.02
2018-11-20T13:22:06.904Z,94157.72
2018-11-20T13:24:57.921Z,94158.11
2018-11-20T13:27:41.470Z,94162.13
2018-11-20T13:30:28.913Z,94178.53
2018-11-20T13:36:05.651Z,94167.59
2018-11-20T13:38:52.848Z,94173.13
2018-11-20T13:41:59.861Z,94176.27
2018-11-20T13:44:40.127Z,94185.75
2018-11-20T13:47:27.433Z,94179.81
2018-11-20T13:50:14.630Z,94179.83
2018-11-20T13:53:01.960Z,94186.42
2018-11-20T13:55:49.139Z,94181.80
2018-11-20T13:58:36.450Z,94187.53
2018-11-20T14:01:24.729Z,94180.62
2018-11-20T14:04:12.098Z,94176.39
2018-11-20T14:06:59.235Z,94178.40
2018-11-20T14:09:46.521Z,94170.75
2018-11-20T14:12:33.686Z,94174.67
2018-11-20T14:15:21.263Z,94169.75
2018-11-20T14:18:08.266Z,94167.36
2018-11-20T14:20:58.281Z,94180.73
2018-11-20T14:24:03.929Z,94165.18
2018-11-20T14:26:56.645Z,94160.64
2018-11-20T14:29:43.884Z,94160.30
2018-11-20T14:32:29.649Z,94174.88
2018-11-20T14:35:15.631Z,94165.81
2018-11-20T14:38:21.211Z,94154.16
2018-11-20T14:41:01.013Z,94156.94
2018-11-20T14:43:35.664Z,94156.89
2018-11-20T14:46:13.229Z,94154.59
2018-11-20T14:49:09.640Z,94151.36
2018-11-20T14:52:12.095Z,94156.47
2018-11-20T14:54:54.286Z,94153.11
2018-11-20T14:57:39.911Z,94156.02
2018-11-20T15:00:35.708Z,94157.33
2018-11-20T15:03:41.012Z,94154.42
2018-11-20T15:06:34.309Z,94148.89
2018-11-20T15:09:20.406Z,94152.59
2018-11-20T15:11:57.275Z,94156.64
2018-11-20T15:14:38.215Z,94154.06
2018-11-20T15:17:23.832Z,94154.89
2018-11-20T15:20:13.772Z,94150.00
2018-11-20T15:23:13.113Z,94144.00
2018-11-20T15:26:04.015Z,94147.11
2018-11-20T15:28:47.456Z,94142.88
2018-11-20T15:31:28.160Z,94137.09
2018-11-20T15:34:21.713Z,94148.52
2018-11-20T15:37:26.758Z,94148.86
2018-11-20T15:40:06.507Z,94156.08
2018-11-20T15:42:58.229Z,94154.45
2018-11-20T15:45:44.663Z,94153.64
2018-11-20T15:48:30.431Z,94167.48
2018-11-20T15:51:07.078Z,94155.86
2018-11-20T15:54:03.014Z,94154.45
2018-11-20T15:56:51.139Z,94159.55
2018-11-20T15:59:48.169Z,94169.84
2018-11-20T16:02:35.462Z,94167.08
2018-11-20T16:05:21.378Z,94177.72
2018-11-20T16:08:08.957Z,94175.50
2018-11-20T16:10:46.445Z,94178.97
2018-11-20T16:13:21.672Z,94176.59
2018-11-20T16:16:11.714Z,94175.02
2018-11-20T16:19:13.849Z,94176.77
2018-11-20T16:22:05.898Z,94172.00
2018-11-20T16:25:04.221Z,94179.56
2018-11-20T16:27:57.162Z,94169.27
2018-11-20T16:30:50.346Z,94190.90
2018-11-20T16:33:34.771Z,94181.31
2018-11-20T16:36:20.489Z,94176.20
2018-11-20T16:39:05.971Z,94173.40
2018-11-20T16:42:02.272Z,94168.53
2018-11-20T16:45:04.566Z,94167.89
2018-11-20T16:48:01.101Z,94166.94
2018-11-20T16:50:48.766Z,94171.65
2018-11-20T16:53:36.107Z,94174.81
2018-11-20T16:56:27.601Z,94176.92
2018-11-20T16:59:33.160Z,94180.19
2018-11-20T17:02:23.107Z,94190.11
2018-11-20T17:05:09.148Z,94197.59
2018-11-20T17:08:14.277Z,94195.61
2018-11-20T17:10:57.042Z,94199.13
2018-11-20T17:13:43.216Z,94195.91
2018-11-20T17:16:24.063Z,94196.66
2018-11-20T17:19:09.783Z,94196.94
2018-11-20T17:21:55.782Z,94194.83
2018-11-20T17:24:41.671Z,94197.97
2018-11-20T17:27:41.006Z,94192.67
2018-11-20T17:30:45.180Z,94187.90
2018-11-20T17:33:35.033Z,94204.94
2018-11-20T17:36:20.854Z,94206.73
2018-11-20T17:38:59.806Z,94206.72
2018-11-20T17:41:53.258Z,94206.20
2018-11-20T17:44:43.955Z,94205.30
2018-11-20T17:47:31.343Z,94207.70
2018-11-20T17:50:18.663Z,94205.87
2018-11-20T17:53:08.623Z,94212.82
2018-11-20T17:55:54.462Z,94215.55
2018-11-20T17:58:40.186Z,94214.16
2018-11-20T18:01:34.000Z,94207.13
2018-11-20T18:04:16.949Z,94218.27
2018-11-20T18:07:04.507Z,94221.95
2018-11-20T18:09:50.673Z,94208.57
2018-11-20T18:12:36.734Z,94216.73
2018-11-20T18:15:35.913Z,94210.75
2018-11-20T18:18:25.093Z,94217.77
2018-11-20T18:21:18.032Z,94214.16
2018-11-20T18:24:04.454Z,94220.70
2018-11-20T18:27:00.367Z,94215.45
2018-11-20T18:29:46.571Z,94220.54
2018-11-20T18:32:32.293Z,94212.95
2018-11-20T18:35:18.629Z,94216.02
2018-11-20T18:37:57.750Z,94213.02
2018-11-20T18:40:45.003Z,94207.16
2018-11-20T18:43:30.804Z,94215.37
2018-11-20T18:46:17.254Z,94216.09
2018-11-20T18:49:02.683Z,94234.55
2018-11-20T18:51:42.655Z,94212.97
2018-11-20T18:54:24.475Z,94222.13
2018-11-20T18:57:05.007Z,94221.95
2018-11-20T18:59:52.200Z,94235.73
2018-11-20T19:02:38.637Z,94246.76
2018-11-20T19:05:33.408Z,94241.78
2018-11-20T19:08:19.340Z,94234.20
2018-11-20T19:11:05.544Z,94239.83
2018-11-20T19:13:54.325Z,94238.87
2018-11-20T19:16:54.555Z,94249.25
2018-11-20T19:19:53.863Z,94255.83
2018-11-20T19:22:44.274Z,94249.80
2018-11-20T19:25:30.148Z,94251.28
2018-11-20T19:28:15.183Z,94255.61
2018-11-20T19:30:58.912Z,94234.05
2018-11-20T19:33:40.247Z,94241.56
2018-11-20T19:36:22.649Z,94250.35
2018-11-20T19:39:08.307Z,94253.06
2018-11-20T19:42:10.594Z,94264.64
2018-11-20T19:44:48.709Z,94266.02
2018-11-20T19:47:41.764Z,94256.38
2018-11-20T19:50:28.147Z,94268.50
2018-11-20T19:53:27.223Z,94283.66
2018-11-20T19:56:20.234Z,94288.84
2018-11-20T19:59:19.731Z,94286.72
2018-11-20T20:02:11.888Z,94284.64
2018-11-20T20:05:12.501Z,94285.22
2018-11-20T20:08:07.111Z,94298.75
2018-11-20T20:11:03.180Z,94307.61
2018-11-20T20:13:44.082Z,94308.84
2018-11-20T20:16:29.836Z,94316.61
2018-11-20T20:19:13.372Z,94331.48
2018-11-20T20:22:06.762Z,94314.72
2018-11-20T20:24:52.879Z,94325.11
2018-11-20T20:27:55.036Z,94334.48
2018-11-20T20:30:51.907Z,94335.78
2018-11-20T20:33:26.052Z,94347.95
2018-11-20T20:36:15.783Z,94332.70
2018-11-20T20:39:11.880Z,94334.70
2018-11-20T20:41:56.736Z,94331.81
2018-11-20T20:44:53.140Z,94335.80
2018-11-20T20:47:48.424Z,94311.01
2018-11-20T20:50:47.894Z,94296.97
2018-11-20T20:53:33.889Z,94294.59
2018-11-20T20:56:19.926Z,94315.41
2018-11-20T20:58:55.638Z,94325.77
2018-11-20T21:01:37.876Z,94320.72
2018-11-20T21:04:24.259Z,94341.50
2018-11-20T21:07:16.041Z,94335.72
2018-11-20T21:10:01.926Z,94320.79
2018-11-20T21:12:38.212Z,94316.10
2018-11-20T21:15:37.169Z,94334.30
2018-11-20T21:18:23.463Z,94345.09
2018-11-20T21:21:10.132Z,94339.25
2018-11-20T21:24:09.028Z,94327.30
2018-11-20T21:27:04.915Z,94332.03
2018-11-20T21:29:51.178Z,94344.23
2018-11-20T21:32:47.201Z,94340.38
2018-11-20T21:35:33.325Z,94347.05
2018-11-20T21:38:21.870Z,94336.22
2018-11-20T21:41:08.161Z,94338.84
2018-11-20T21:43:49.033Z,94326.06
2018-11-20T21:46:42.360Z,94327.89
2018-11-20T21:49:28.096Z,94355.53
2018-11-20T21:52:15.160Z,94359.53
2018-11-20T21:55:05.070Z,94372.46
2018-11-20T21:57:53.274Z,94381.38
2018-11-20T22:00:56.095Z,94382.23
2018-11-20T22:03:42.319Z,94386.64
2018-11-20T22:06:28.243Z,94392.10
2018-11-20T22:09:16.360Z,94389.47
2018-11-20T22:12:09.165Z,94396.72
2018-11-20T22:15:14.598Z,94409.24
2018-11-20T22:18:15.278Z,94401.55
2018-11-20T22:20:53.137Z,94394.66
2018-11-20T22:23:38.976Z,94391.73
2018-11-20T22:26:15.203Z,94397.36
2018-11-20T22:29:17.397Z,94411.45
2018-11-20T22:32:03.244Z,94400.91
2018-11-20T22:34:53.440Z,94398.50
2018-11-20T22:37:40.939Z,94417.64
2018-11-20T22:40:31.292Z,94432.23
2018-11-20T22:43:17.443Z,94428.98
2018-11-20T22:46:03.249Z,94415.72
2018-11-20T22:48:50.834Z,94417.12
2018-11-20T22:51:36.915Z,94410.95
2018-11-20T22:54:39.731Z,94411.69
2018-11-20T22:57:26.298Z,94411.85
2018-11-20T23:00:12.160Z,94406.17
2018-11-20T23:03:11.693Z,94415.84
2018-11-20T23:06:09.868Z,94423.66
2018-11-20T23:08:38.128Z,94433.33
2018-11-20T23:11:06.623Z,94435.89
2018-11-20T23:13:34.867Z,94425.11
2018-11-20T23:16:03.028Z,94424.52
2018-11-20T23:18:31.217Z,94420.37
2018-11-20T23:20:59.310Z,94418.00
2018-11-20T23:23:30.682Z,94419.70
2018-11-20T23:25:58.867Z,94419.56
2018-11-20T23:28:26.912Z,94415.55
2018-11-20T23:30:55.182Z,94410.89
2018-11-20T23:33:23.372Z,94419.30
2018-11-20T23:35:51.428Z,94405.89
2018-11-20T23:38:19.476Z,94408.16
2018-11-20T23:40:47.632Z,94416.62
2018-11-20T23:43:15.666Z,94415.00
2018-11-20T23:45:43.734Z,94425.73
2018-11-20T23:48:11.850Z,94426.52
2018-11-20T23:50:39.964Z,94438.84
2018-11-20T23:53:08.006Z,94426.22
2018-11-20T23:55:36.153Z,94430.99
2018-11-20T23:58:04.179Z,94427.52
